GTI819 KMIA-MROC
Flight info
| Callsign | GTI819 |
|---|---|
| Flight time | N/A |
| Altitude | 31000 |
| Route | MAYNR3 FUNDI UM335 JABIR/N0506F330 UM335 ALVEK UM328 SELEK UZ403 PIRAS BARRA4P |
| Aircraft | B744/H-SDE3FGHIM1M2RWXY/LB1 |
Departure
| Time | 2026-05-05 00:27 |
|---|---|
| Airport | Miami International Airport (KMIA) |
Arrival
| Time | N/A |
|---|---|
| Airport | Juan Santamaría International Airport (MROC) |
| Time | Latitude | Longitude | Altitude | Speed | Heading |
|---|---|---|---|---|---|
| 2026-05-04 23:42 | 25.79333 | -80.29562 | 17 ft | 0 kts | 214° |
| 2026-05-05 00:07 | 25.79338 | -80.29559 | 16 ft | 2 kts | 214° |
| 2026-05-05 00:07 | 25.79350 | -80.29549 | 16 ft | 1 kts | 214° |
| 2026-05-05 00:07 | 25.79358 | -80.29542 | 16 ft | 2 kts | 210° |
| 2026-05-05 00:07 | 25.79373 | -80.29537 | 16 ft | 2 kts | 181° |
| 2026-05-05 00:08 | 25.79387 | -80.29539 | 16 ft | 2 kts | 161° |
| 2026-05-05 00:08 | 25.79396 | -80.29543 | 16 ft | 2 kts | 149° |
| 2026-05-05 00:08 | 25.79409 | -80.29556 | 16 ft | 1 kts | 123° |
| 2026-05-05 00:08 | 25.79413 | -80.29561 | 16 ft | 1 kts | 118° |
| 2026-05-05 00:09 | 25.79415 | -80.29564 | 16 ft | 0 kts | 120° |
| 2026-05-05 00:16 | 25.79414 | -80.29562 | 16 ft | 1 kts | 120° |
| 2026-05-05 00:17 | 25.79406 | -80.29548 | 16 ft | 4 kts | 122° |
| 2026-05-05 00:17 | 25.79370 | -80.29483 | 16 ft | 16 kts | 121° |
| 2026-05-05 00:17 | 25.79318 | -80.29382 | 16 ft | 13 kts | 120° |
| 2026-05-05 00:17 | 25.79283 | -80.29314 | 16 ft | 7 kts | 119° |
| 2026-05-05 00:18 | 25.79261 | -80.29272 | 16 ft | 7 kts | 119° |
| 2026-05-05 00:18 | 25.79218 | -80.29185 | 16 ft | 18 kts | 119° |
| 2026-05-05 00:18 | 25.79166 | -80.29083 | 16 ft | 19 kts | 119° |
| 2026-05-05 00:18 | 25.79106 | -80.28965 | 16 ft | 14 kts | 119° |
| 2026-05-05 00:19 | 25.79061 | -80.28890 | 16 ft | 8 kts | 142° |
| 2026-05-05 00:19 | 25.79022 | -80.28873 | 16 ft | 4 kts | 173° |
| 2026-05-05 00:19 | 25.78974 | -80.28870 | 16 ft | 11 kts | 188° |
| 2026-05-05 00:19 | 25.78927 | -80.28954 | 16 ft | 13 kts | 256° |
| 2026-05-05 00:20 | 25.78907 | -80.29042 | 16 ft | 8 kts | 259° |
| 2026-05-05 00:20 | 25.78904 | -80.29087 | 16 ft | 3 kts | 267° |
| 2026-05-05 00:20 | 25.78903 | -80.29120 | 16 ft | 7 kts | 268° |
| 2026-05-05 00:20 | 25.78899 | -80.29212 | 16 ft | 16 kts | 267° |
| 2026-05-05 00:21 | 25.78894 | -80.29336 | 16 ft | 15 kts | 266° |
| 2026-05-05 00:21 | 25.78889 | -80.29447 | 16 ft | 13 kts | 268° |
| 2026-05-05 00:21 | 25.78885 | -80.29545 | 16 ft | 11 kts | 268° |
| 2026-05-05 00:21 | 25.78884 | -80.29622 | 16 ft | 9 kts | 269° |
| 2026-05-05 00:22 | 25.78880 | -80.29695 | 16 ft | 10 kts | 266° |
| 2026-05-05 00:22 | 25.78875 | -80.29797 | 16 ft | 15 kts | 267° |
| 2026-05-05 00:22 | 25.78869 | -80.29930 | 16 ft | 19 kts | 268° |
| 2026-05-05 00:22 | 25.78862 | -80.30093 | 16 ft | 22 kts | 268° |
| 2026-05-05 00:23 | 25.78857 | -80.30228 | 16 ft | 14 kts | 265° |
| 2026-05-05 00:23 | 25.78852 | -80.30344 | 16 ft | 16 kts | 266° |
| 2026-05-05 00:23 | 25.78846 | -80.30479 | 16 ft | 18 kts | 267° |
| 2026-05-05 00:23 | 25.78840 | -80.30626 | 16 ft | 18 kts | 268° |
| 2026-05-05 00:24 | 25.78834 | -80.30769 | 16 ft | 18 kts | 268° |
| 2026-05-05 00:24 | 25.78828 | -80.30909 | 16 ft | 18 kts | 268° |
| 2026-05-05 00:24 | 25.78823 | -80.31021 | 16 ft | 13 kts | 267° |
| 2026-05-05 00:24 | 25.78819 | -80.31116 | 16 ft | 11 kts | 269° |
| 2026-05-05 00:25 | 25.78816 | -80.31204 | 16 ft | 11 kts | 266° |
| 2026-05-05 00:25 | 25.78811 | -80.31301 | 16 ft | 13 kts | 267° |
| 2026-05-05 00:25 | 25.78807 | -80.31385 | 16 ft | 8 kts | 267° |
| 2026-05-05 00:25 | 25.78799 | -80.31435 | 16 ft | 6 kts | 239° |
| 2026-05-05 00:26 | 25.78760 | -80.31452 | 16 ft | 6 kts | 183° |
| 2026-05-05 00:26 | 25.78696 | -80.31454 | 16 ft | 12 kts | 178° |
| 2026-05-05 00:26 | 25.78618 | -80.31425 | 16 ft | 11 kts | 114° |
| 2026-05-05 00:26 | 25.78617 | -80.31360 | 16 ft | 6 kts | 86° |
| 2026-05-05 00:27 | 25.78627 | -80.31123 | 17 ft | 72 kts | 87° |
| 2026-05-05 00:27 | 25.78664 | -80.30241 | 17 ft | 151 kts | 87° |
| 2026-05-05 00:27 | 25.78714 | -80.28850 | 191 ft | 201 kts | 88° |
| 2026-05-05 00:27 | 25.78768 | -80.27274 | 983 ft | 210 kts | 86° |
| 2026-05-05 00:28 | 25.78867 | -80.25642 | 2003 ft | 212 kts | 85° |
| 2026-05-05 00:28 | 25.78746 | -80.24004 | 2895 ft | 220 kts | 107° |
| 2026-05-05 00:28 | 25.77938 | -80.22514 | 3848 ft | 229 kts | 133° |
| 2026-05-05 00:28 | 25.76654 | -80.21425 | 4742 ft | 241 kts | 144° |
| 2026-05-05 00:29 | 25.75292 | -80.20416 | 5687 ft | 248 kts | 145° |
| 2026-05-05 00:29 | 25.73786 | -80.19662 | 6592 ft | 255 kts | 167° |
| 2026-05-05 00:29 | 25.72024 | -80.19412 | 7549 ft | 260 kts | 175° |
| 2026-05-05 00:29 | 25.70189 | -80.19250 | 8523 ft | 264 kts | 175° |
| 2026-05-05 00:30 | 25.68311 | -80.19068 | 9500 ft | 267 kts | 176° |
| 2026-05-05 00:30 | 25.66447 | -80.19067 | 10426 ft | 267 kts | 188° |
| 2026-05-05 00:30 | 25.64601 | -80.19370 | 11341 ft | 268 kts | 189° |
| 2026-05-05 00:30 | 25.62753 | -80.19662 | 12230 ft | 269 kts | 191° |
| 2026-05-05 00:31 | 25.60967 | -80.20300 | 13037 ft | 269 kts | 210° |
| 2026-05-05 00:31 | 25.59331 | -80.21352 | 13829 ft | 271 kts | 212° |
| 2026-05-05 00:31 | 25.57677 | -80.22418 | 14605 ft | 273 kts | 212° |
| 2026-05-05 00:31 | 25.56015 | -80.23484 | 15352 ft | 275 kts | 212° |
| 2026-05-05 00:32 | 25.54357 | -80.24544 | 16060 ft | 277 kts | 212° |
| 2026-05-05 00:32 | 25.52647 | -80.25633 | 16760 ft | 279 kts | 212° |
| 2026-05-05 00:32 | 25.50934 | -80.26720 | 17431 ft | 280 kts | 212° |
| 2026-05-05 00:32 | 25.49219 | -80.27808 | 18074 ft | 282 kts | 213° |
| 2026-05-05 00:33 | 25.47476 | -80.28911 | 18700 ft | 284 kts | 213° |
| 2026-05-05 00:33 | 25.46163 | -80.29740 | 19144 ft | 286 kts | 213° |
| 2026-05-05 00:33 | 25.44240 | -80.30954 | 19779 ft | 288 kts | 213° |
| 2026-05-05 00:33 | 25.42513 | -80.32043 | 20265 ft | 287 kts | 213° |
| 2026-05-05 00:34 | 25.40728 | -80.33170 | 20668 ft | 294 kts | 213° |
| 2026-05-05 00:34 | 25.39238 | -80.34109 | 20953 ft | 302 kts | 213° |
| 2026-05-05 00:34 | 25.37240 | -80.35369 | 21242 ft | 316 kts | 213° |
| 2026-05-05 00:34 | 25.35235 | -80.36633 | 21370 ft | 336 kts | 213° |
| 2026-05-05 00:35 | 25.33109 | -80.37976 | 21275 ft | 363 kts | 213° |
| 2026-05-05 00:35 | 25.30864 | -80.39391 | 21498 ft | 379 kts | 213° |
| 2026-05-05 00:35 | 25.28583 | -80.40825 | 22277 ft | 381 kts | 213° |
| 2026-05-05 00:35 | 25.26463 | -80.42160 | 22976 ft | 382 kts | 213° |
| 2026-05-05 00:36 | 25.24441 | -80.43434 | 23600 ft | 384 kts | 213° |
| 2026-05-05 00:36 | 25.21947 | -80.44684 | 24226 ft | 392 kts | 201° |
| 2026-05-05 00:36 | 25.19285 | -80.45483 | 24880 ft | 395 kts | 199° |
| 2026-05-05 00:36 | 25.16659 | -80.46326 | 25523 ft | 396 kts | 201° |
| 2026-05-05 00:37 | 25.14011 | -80.47173 | 26150 ft | 398 kts | 200° |
| 2026-05-05 00:37 | 25.11315 | -80.48038 | 26771 ft | 400 kts | 201° |
| 2026-05-05 00:37 | 25.08623 | -80.48913 | 27333 ft | 403 kts | 200° |
| 2026-05-05 00:37 | 25.05926 | -80.49786 | 27873 ft | 406 kts | 201° |
| 2026-05-05 00:38 | 25.03219 | -80.50666 | 28397 ft | 408 kts | 200° |
| 2026-05-05 00:38 | 25.00467 | -80.51562 | 28908 ft | 411 kts | 200° |
| 2026-05-05 00:38 | 24.97782 | -80.52438 | 29372 ft | 414 kts | 200° |
| 2026-05-05 00:38 | 24.94971 | -80.53353 | 29852 ft | 417 kts | 200° |
| 2026-05-05 00:39 | 24.92217 | -80.54248 | 30317 ft | 420 kts | 200° |
| 2026-05-05 00:39 | 24.89421 | -80.55160 | 30781 ft | 422 kts | 200° |
| 2026-05-05 00:39 | 24.86693 | -80.56052 | 31220 ft | 424 kts | 200° |
| 2026-05-05 00:39 | 24.83901 | -80.57196 | 31618 ft | 422 kts | 211° |
| 2026-05-05 00:40 | 24.81455 | -80.58998 | 32000 ft | 418 kts | 224° |
| 2026-05-05 00:40 | 24.79505 | -80.61402 | 32387 ft | 416 kts | 238° |
| 2026-05-05 00:40 | 24.78026 | -80.64106 | 32760 ft | 417 kts | 241° |
| 2026-05-05 00:40 | 24.76484 | -80.66876 | 33012 ft | 424 kts | 239° |
| 2026-05-05 00:41 | 24.74882 | -80.69675 | 33139 ft | 434 kts | 239° |
| 2026-05-05 00:41 | 24.73250 | -80.72549 | 33167 ft | 447 kts | 239° |
| 2026-05-05 00:41 | 24.71563 | -80.75467 | 33164 ft | 460 kts | 239° |
| 2026-05-05 00:42 | 24.68066 | -80.81516 | 33078 ft | 464 kts | 239° |
| 2026-05-05 00:42 | 24.64619 | -80.87448 | 32969 ft | 456 kts | 239° |
| 2026-05-05 00:43 | 24.61197 | -80.93314 | 32968 ft | 453 kts | 239° |
| 2026-05-05 00:43 | 24.57307 | -80.98834 | 32943 ft | 458 kts | 224° |
| 2026-05-05 00:43 | 24.54666 | -81.00839 | 32957 ft | 464 kts | 212° |
| 2026-05-05 00:44 | 24.51625 | -81.02170 | 32973 ft | 472 kts | 199° |
| 2026-05-05 00:44 | 24.48379 | -81.02743 | 32982 ft | 480 kts | 187° |
| 2026-05-05 00:44 | 24.44968 | -81.02541 | 32993 ft | 487 kts | 177° |
| 2026-05-05 00:45 | 24.38278 | -81.01859 | 33015 ft | 481 kts | 182° |
| 2026-05-05 00:45 | 24.31555 | -81.01584 | 32999 ft | 481 kts | 183° |
| 2026-05-05 00:46 | 24.24840 | -81.01444 | 32993 ft | 481 kts | 184° |
| 2026-05-05 00:46 | 24.18114 | -81.01355 | 32991 ft | 481 kts | 184° |
| 2026-05-05 00:47 | 24.11429 | -81.01286 | 32990 ft | 480 kts | 184° |
| 2026-05-05 00:47 | 24.04713 | -81.01224 | 32990 ft | 480 kts | 184° |
| 2026-05-05 00:48 | 23.98011 | -81.01138 | 32986 ft | 482 kts | 182° |
| 2026-05-05 00:48 | 23.91279 | -81.00825 | 32991 ft | 481 kts | 182° |
| 2026-05-05 00:49 | 23.84718 | -81.00535 | 32991 ft | 481 kts | 182° |
| 2026-05-05 00:49 | 23.78072 | -81.00254 | 32992 ft | 481 kts | 182° |
| 2026-05-05 00:50 | 23.71313 | -80.99970 | 32992 ft | 481 kts | 182° |
| 2026-05-05 00:50 | 23.64549 | -80.99686 | 33007 ft | 488 kts | 182° |
| 2026-05-05 00:51 | 23.57695 | -80.99398 | 33022 ft | 492 kts | 182° |
| 2026-05-05 00:51 | 23.50838 | -80.99108 | 33003 ft | 492 kts | 182° |
| 2026-05-05 00:52 | 23.43960 | -80.98818 | 32996 ft | 492 kts | 182° |
| 2026-05-05 00:52 | 23.37108 | -80.98528 | 32994 ft | 492 kts | 182° |
| 2026-05-05 00:53 | 23.30256 | -80.98244 | 32993 ft | 492 kts | 182° |
| 2026-05-05 00:53 | 23.23408 | -80.97961 | 32993 ft | 492 kts | 182° |
| 2026-05-05 00:54 | 23.16570 | -80.97668 | 32993 ft | 492 kts | 182° |
| 2026-05-05 00:54 | 23.09698 | -80.97380 | 32993 ft | 492 kts | 182° |
| 2026-05-05 00:55 | 23.02822 | -80.97083 | 32993 ft | 492 kts | 182° |
| 2026-05-05 00:55 | 22.96382 | -80.97922 | 32948 ft | 481 kts | 202° |
| 2026-05-05 00:56 | 22.90431 | -81.01065 | 33008 ft | 482 kts | 208° |
| 2026-05-05 00:56 | 22.84417 | -81.03841 | 33032 ft | 485 kts | 205° |
| 2026-05-05 00:57 | 22.78134 | -81.06509 | 33004 ft | 485 kts | 204° |
| 2026-05-05 00:57 | 22.71770 | -81.09116 | 32996 ft | 485 kts | 203° |
| 2026-05-05 00:58 | 22.65456 | -81.11665 | 32993 ft | 485 kts | 203° |
| 2026-05-05 00:58 | 22.59101 | -81.14213 | 32992 ft | 485 kts | 203° |
| 2026-05-05 00:59 | 22.52728 | -81.16756 | 32993 ft | 485 kts | 203° |
| 2026-05-05 00:59 | 22.46376 | -81.19289 | 32993 ft | 485 kts | 203° |
| 2026-05-05 01:00 | 22.40023 | -81.21818 | 32993 ft | 485 kts | 203° |
| 2026-05-05 01:00 | 22.33634 | -81.24357 | 32992 ft | 484 kts | 202° |
| 2026-05-05 01:01 | 22.27271 | -81.26883 | 32992 ft | 484 kts | 203° |
| 2026-05-05 01:01 | 22.20904 | -81.29410 | 32992 ft | 484 kts | 203° |
| 2026-05-05 01:02 | 22.14512 | -81.31943 | 32993 ft | 484 kts | 203° |
| 2026-05-05 01:02 | 22.08183 | -81.34448 | 32993 ft | 484 kts | 203° |
| 2026-05-05 01:03 | 22.01860 | -81.36951 | 32993 ft | 484 kts | 203° |
| 2026-05-05 01:03 | 21.95524 | -81.39455 | 32993 ft | 484 kts | 202° |
| 2026-05-05 01:04 | 21.89159 | -81.41968 | 32992 ft | 484 kts | 203° |
| 2026-05-05 01:04 | 21.79650 | -81.45718 | 32993 ft | 484 kts | 203° |
| 2026-05-05 01:05 | 21.73268 | -81.48229 | 32992 ft | 484 kts | 202° |
| 2026-05-05 01:05 | 21.66882 | -81.50742 | 32993 ft | 484 kts | 203° |
| 2026-05-05 01:06 | 21.60644 | -81.53227 | 32987 ft | 482 kts | 205° |
| 2026-05-05 01:06 | 21.54584 | -81.56744 | 32996 ft | 481 kts | 211° |
| 2026-05-05 01:07 | 21.48665 | -81.60242 | 33004 ft | 482 kts | 211° |
| 2026-05-05 01:07 | 21.42681 | -81.63770 | 32995 ft | 482 kts | 211° |
| 2026-05-05 01:08 | 21.36748 | -81.67266 | 32998 ft | 482 kts | 211° |
| 2026-05-05 01:08 | 21.30842 | -81.70743 | 32994 ft | 482 kts | 211° |
| 2026-05-05 01:09 | 21.25018 | -81.74169 | 32993 ft | 481 kts | 211° |
| 2026-05-05 01:09 | 21.19089 | -81.77654 | 32992 ft | 481 kts | 211° |
| 2026-05-05 01:10 | 21.13294 | -81.81058 | 32992 ft | 481 kts | 211° |
| 2026-05-05 01:10 | 21.07629 | -81.84380 | 32991 ft | 481 kts | 211° |
| 2026-05-05 01:11 | 21.01806 | -81.87794 | 32992 ft | 483 kts | 211° |
| 2026-05-05 01:11 | 20.95836 | -81.91293 | 32993 ft | 484 kts | 210° |
| 2026-05-05 01:12 | 20.89933 | -81.94747 | 32992 ft | 484 kts | 210° |
| 2026-05-05 01:12 | 20.83993 | -81.98221 | 32994 ft | 484 kts | 210° |
| 2026-05-05 01:13 | 20.78120 | -82.01651 | 32993 ft | 484 kts | 210° |
| 2026-05-05 01:13 | 20.72225 | -82.05090 | 32993 ft | 484 kts | 210° |
| 2026-05-05 01:14 | 20.66244 | -82.08578 | 32993 ft | 484 kts | 210° |
| 2026-05-05 01:14 | 20.60243 | -82.12072 | 32993 ft | 485 kts | 210° |
| 2026-05-05 01:15 | 20.54269 | -82.15548 | 32993 ft | 485 kts | 210° |
| 2026-05-05 01:15 | 20.48291 | -82.19023 | 32993 ft | 485 kts | 210° |
| 2026-05-05 01:16 | 20.42305 | -82.22500 | 32993 ft | 485 kts | 210° |
| 2026-05-05 01:16 | 20.36297 | -82.25987 | 32993 ft | 485 kts | 210° |
| 2026-05-05 01:17 | 20.30305 | -82.29461 | 32993 ft | 485 kts | 210° |
| 2026-05-05 01:17 | 20.24318 | -82.32929 | 32993 ft | 485 kts | 210° |
| 2026-05-05 01:18 | 20.18346 | -82.36382 | 32993 ft | 485 kts | 210° |
| 2026-05-05 01:18 | 20.12358 | -82.39849 | 32993 ft | 485 kts | 210° |
| 2026-05-05 01:19 | 20.06061 | -82.42467 | 32953 ft | 489 kts | 193° |
| 2026-05-05 01:19 | 19.99360 | -82.43875 | 33016 ft | 491 kts | 194° |
| 2026-05-05 01:20 | 19.93379 | -82.45191 | 33010 ft | 491 kts | 194° |
| 2026-05-05 01:20 | 19.86722 | -82.46693 | 32998 ft | 491 kts | 194° |
| 2026-05-05 01:21 | 19.80158 | -82.48180 | 32994 ft | 491 kts | 194° |
| 2026-05-05 01:21 | 19.73470 | -82.49695 | 32993 ft | 491 kts | 194° |
| 2026-05-05 01:22 | 19.66811 | -82.51202 | 32993 ft | 491 kts | 194° |
| 2026-05-05 01:22 | 19.60234 | -82.52689 | 32993 ft | 491 kts | 194° |
| 2026-05-05 01:23 | 19.53556 | -82.54199 | 32993 ft | 491 kts | 194° |
| 2026-05-05 01:23 | 19.46906 | -82.55701 | 32993 ft | 491 kts | 194° |
| 2026-05-05 01:24 | 19.40225 | -82.57209 | 32993 ft | 491 kts | 194° |
| 2026-05-05 01:24 | 19.33454 | -82.58736 | 32993 ft | 491 kts | 194° |
| 2026-05-05 01:25 | 19.27546 | -82.60067 | 32993 ft | 491 kts | 194° |
| 2026-05-05 01:26 | 19.18529 | -82.61897 | 32810 ft | 480 kts | 197° |
| 2026-05-05 01:26 | 19.15281 | -82.62750 | 32927 ft | 487 kts | 195° |
| 2026-05-05 01:26 | 19.11973 | -82.63513 | 33014 ft | 491 kts | 194° |
| 2026-05-05 01:27 | 19.05280 | -82.65071 | 33039 ft | 491 kts | 194° |
| 2026-05-05 01:27 | 18.98615 | -82.66586 | 33014 ft | 494 kts | 194° |
| 2026-05-05 01:28 | 18.91909 | -82.68094 | 33018 ft | 495 kts | 193° |
| 2026-05-05 01:28 | 18.85166 | -82.69605 | 33019 ft | 496 kts | 193° |
| 2026-05-05 01:29 | 18.78440 | -82.71111 | 33020 ft | 496 kts | 193° |
| 2026-05-05 01:29 | 18.71678 | -82.72622 | 33020 ft | 496 kts | 193° |
| 2026-05-05 01:30 | 18.64988 | -82.74116 | 33020 ft | 496 kts | 193° |
| 2026-05-05 01:30 | 18.58234 | -82.75623 | 33020 ft | 496 kts | 193° |
| 2026-05-05 01:31 | 18.51491 | -82.77127 | 33020 ft | 496 kts | 193° |
| 2026-05-05 01:31 | 18.44765 | -82.78626 | 33020 ft | 496 kts | 193° |
| 2026-05-05 01:32 | 18.38038 | -82.80125 | 33020 ft | 496 kts | 193° |
| 2026-05-05 01:32 | 18.31326 | -82.81619 | 33020 ft | 497 kts | 193° |
| 2026-05-05 01:33 | 18.25092 | -82.83006 | 33020 ft | 497 kts | 193° |
| 2026-05-05 01:33 | 18.18392 | -82.84495 | 33020 ft | 498 kts | 193° |
| 2026-05-05 01:34 | 18.11594 | -82.86005 | 33021 ft | 499 kts | 193° |
| 2026-05-05 01:34 | 18.04836 | -82.87506 | 33020 ft | 499 kts | 193° |
| 2026-05-05 01:35 | 17.98013 | -82.89020 | 33020 ft | 500 kts | 193° |
| 2026-05-05 01:35 | 17.91244 | -82.90520 | 33020 ft | 501 kts | 193° |
| 2026-05-05 01:36 | 17.84409 | -82.92033 | 33019 ft | 501 kts | 193° |
| 2026-05-05 01:36 | 17.77584 | -82.93544 | 33020 ft | 501 kts | 193° |
| 2026-05-05 01:37 | 17.70755 | -82.95054 | 33020 ft | 502 kts | 193° |
| 2026-05-05 01:37 | 17.63937 | -82.96561 | 33020 ft | 502 kts | 193° |
| 2026-05-05 01:38 | 17.57109 | -82.98068 | 33020 ft | 503 kts | 193° |
| 2026-05-05 01:38 | 17.50248 | -82.99583 | 33020 ft | 503 kts | 193° |
| 2026-05-05 01:39 | 17.43644 | -83.01038 | 33019 ft | 504 kts | 193° |
| 2026-05-05 01:39 | 17.36763 | -83.02554 | 33020 ft | 504 kts | 193° |
| 2026-05-05 01:40 | 17.29897 | -83.04066 | 33020 ft | 505 kts | 193° |
| 2026-05-05 01:40 | 17.23075 | -83.05566 | 33020 ft | 505 kts | 193° |
| 2026-05-05 01:41 | 17.16189 | -83.07080 | 33020 ft | 505 kts | 193° |
| 2026-05-05 01:41 | 17.09300 | -83.08593 | 33019 ft | 505 kts | 193° |
| 2026-05-05 01:42 | 17.02436 | -83.10098 | 33019 ft | 504 kts | 192° |
| 2026-05-05 01:42 | 16.95628 | -83.11591 | 33021 ft | 502 kts | 192° |
| 2026-05-05 01:43 | 16.88791 | -83.13088 | 33019 ft | 502 kts | 192° |
| 2026-05-05 01:43 | 16.83087 | -83.14341 | 33014 ft | 500 kts | 192° |
| 2026-05-05 01:44 | 16.76170 | -83.15851 | 33017 ft | 500 kts | 192° |
| 2026-05-05 01:44 | 16.69352 | -83.17340 | 33011 ft | 501 kts | 192° |
| 2026-05-05 01:45 | 16.62538 | -83.18829 | 32999 ft | 501 kts | 192° |
| 2026-05-05 01:45 | 16.55703 | -83.20322 | 32989 ft | 501 kts | 192° |
| 2026-05-05 01:46 | 16.48931 | -83.21800 | 32984 ft | 500 kts | 192° |
| 2026-05-05 01:46 | 16.42109 | -83.23287 | 32978 ft | 501 kts | 192° |
| 2026-05-05 01:47 | 16.35296 | -83.24772 | 32971 ft | 501 kts | 192° |
| 2026-05-05 01:47 | 16.29314 | -83.26074 | 32967 ft | 501 kts | 192° |
| 2026-05-05 01:48 | 16.22519 | -83.27553 | 32965 ft | 501 kts | 192° |
| 2026-05-05 01:48 | 16.15701 | -83.29034 | 32966 ft | 501 kts | 192° |
| 2026-05-05 01:49 | 16.08913 | -83.30511 | 32967 ft | 501 kts | 192° |
| 2026-05-05 01:49 | 16.02512 | -83.31886 | 32967 ft | 501 kts | 191° |
| 2026-05-05 01:50 | 15.95448 | -83.33375 | 32966 ft | 502 kts | 191° |
| 2026-05-05 01:50 | 15.88600 | -83.34816 | 32959 ft | 502 kts | 191° |
| 2026-05-05 01:51 | 15.81729 | -83.36262 | 32952 ft | 502 kts | 191° |
| 2026-05-05 01:51 | 15.74932 | -83.37693 | 32950 ft | 502 kts | 191° |
| 2026-05-05 01:52 | 15.68074 | -83.39135 | 32951 ft | 502 kts | 191° |
| 2026-05-05 01:52 | 15.61227 | -83.40575 | 32950 ft | 502 kts | 191° |
| 2026-05-05 01:53 | 15.54405 | -83.42007 | 32946 ft | 502 kts | 191° |
| 2026-05-05 01:53 | 15.47526 | -83.43451 | 32942 ft | 502 kts | 191° |
| 2026-05-05 01:54 | 15.40718 | -83.44879 | 32939 ft | 502 kts | 191° |
| 2026-05-05 01:54 | 15.33856 | -83.46318 | 32939 ft | 502 kts | 191° |
| 2026-05-05 01:55 | 15.27061 | -83.47742 | 32939 ft | 502 kts | 191° |
| 2026-05-05 01:55 | 15.20198 | -83.49178 | 32939 ft | 502 kts | 191° |
| 2026-05-05 01:56 | 15.13363 | -83.50608 | 32939 ft | 502 kts | 191° |
| 2026-05-05 01:56 | 15.07286 | -83.51878 | 32934 ft | 501 kts | 191° |
| 2026-05-05 01:57 | 14.99828 | -83.53435 | 32937 ft | 501 kts | 191° |
| 2026-05-05 01:57 | 14.92994 | -83.54862 | 32939 ft | 502 kts | 191° |
| 2026-05-05 01:58 | 14.86169 | -83.56286 | 32939 ft | 501 kts | 191° |
| 2026-05-05 01:58 | 14.79370 | -83.57703 | 32939 ft | 501 kts | 190° |
| 2026-05-05 01:59 | 14.72546 | -83.59125 | 32939 ft | 501 kts | 190° |
| 2026-05-05 01:59 | 14.65749 | -83.60541 | 32939 ft | 501 kts | 190° |
| 2026-05-05 02:00 | 14.58900 | -83.61967 | 32939 ft | 501 kts | 190° |
| 2026-05-05 02:00 | 14.52085 | -83.63384 | 32939 ft | 501 kts | 190° |
| 2026-05-05 02:01 | 14.45270 | -83.64801 | 32939 ft | 501 kts | 190° |
| 2026-05-05 02:01 | 14.38849 | -83.66136 | 32936 ft | 501 kts | 190° |
| 2026-05-05 02:02 | 14.32274 | -83.67497 | 32938 ft | 501 kts | 190° |
| 2026-05-05 02:02 | 14.25444 | -83.68916 | 32939 ft | 501 kts | 190° |
| 2026-05-05 02:03 | 14.18620 | -83.70332 | 32939 ft | 501 kts | 190° |
| 2026-05-05 02:03 | 14.11795 | -83.71747 | 32939 ft | 501 kts | 190° |
| 2026-05-05 02:04 | 14.04986 | -83.73157 | 32939 ft | 501 kts | 190° |
| 2026-05-05 02:04 | 13.98636 | -83.74471 | 32938 ft | 501 kts | 190° |
| 2026-05-05 02:05 | 13.91776 | -83.75890 | 32939 ft | 500 kts | 190° |
| 2026-05-05 02:05 | 13.84950 | -83.77302 | 32939 ft | 501 kts | 190° |
| 2026-05-05 02:06 | 13.78162 | -83.78704 | 32939 ft | 500 kts | 190° |
| 2026-05-05 02:06 | 13.71288 | -83.80124 | 32939 ft | 501 kts | 190° |
| 2026-05-05 02:07 | 13.64398 | -83.81546 | 32939 ft | 501 kts | 190° |
| 2026-05-05 02:07 | 13.58153 | -83.82835 | 32938 ft | 501 kts | 190° |
| 2026-05-05 02:08 | 13.51761 | -83.84153 | 32939 ft | 501 kts | 190° |
| 2026-05-05 02:08 | 13.44947 | -83.85555 | 32939 ft | 501 kts | 190° |
| 2026-05-05 02:09 | 13.38109 | -83.86964 | 32939 ft | 501 kts | 190° |
| 2026-05-05 02:09 | 13.31276 | -83.88370 | 32939 ft | 501 kts | 190° |
| 2026-05-05 02:10 | 13.24483 | -83.89767 | 32939 ft | 501 kts | 190° |
| 2026-05-05 02:10 | 13.17667 | -83.91167 | 32939 ft | 501 kts | 190° |
| 2026-05-05 02:11 | 13.10852 | -83.92567 | 32939 ft | 501 kts | 190° |
| 2026-05-05 02:11 | 13.04007 | -83.93973 | 32939 ft | 500 kts | 189° |
| 2026-05-05 02:12 | 12.93755 | -83.96076 | 32938 ft | 498 kts | 189° |
| 2026-05-05 02:13 | 12.86938 | -83.97473 | 32938 ft | 498 kts | 189° |
| 2026-05-05 02:13 | 12.80123 | -83.98869 | 32937 ft | 498 kts | 189° |
| 2026-05-05 02:14 | 12.73922 | -84.00138 | 32936 ft | 498 kts | 189° |
| 2026-05-05 02:14 | 12.66914 | -84.01568 | 32936 ft | 498 kts | 189° |
| 2026-05-05 02:15 | 12.60118 | -84.02957 | 32936 ft | 498 kts | 189° |
| 2026-05-05 02:15 | 12.53288 | -84.04353 | 32935 ft | 498 kts | 189° |
| 2026-05-05 02:16 | 12.46488 | -84.05743 | 32936 ft | 498 kts | 189° |
| 2026-05-05 02:16 | 12.39695 | -84.07131 | 32936 ft | 498 kts | 189° |
| 2026-05-05 02:17 | 12.32915 | -84.08516 | 32936 ft | 498 kts | 189° |